Observations for PRATICA DI MARE, Italy (LIRE)

LIRE 191855Z 10006KT CAVOK 19/16 Q1018  
LIRE 191855Z 10006KT CAVOK 19/16 Q1018 RMK SKC VIS MIN 9999 WIND THR13 14004KT WIND THR31 /////KT BLU
LIRE 191755Z 09005KT CAVOK 19/16 Q1017 RMK FEW FEW200 VIS MIN 9999 WIND THR13 09002KT WIND THR31 /////KT BLU
LIRE 191655Z 14005KT CAVOK 20/16 Q1017 RMK SCT SCT200 VIS MIN 9999 WIND THR13 16005KT WIND THR31 /////KT BLU
LIRE 191555Z 16008KT CAVOK 21/16 Q1017 RMK FEW FEW200 VIS MIN 9999 WIND THR13 18008KT WIND THR31 /////KT BLU
LIRE 191455Z 18011KT CAVOK 21/14 Q1017 RMK FEW FEW200 VIS MIN 9999 WIND THR13 18008KT WIND THR31 /////KT BLU
LIRE 191355Z 19010KT 9999 FEW020 21/14 Q1017 RMK FEW VIS MIN 9999 WIND THR13 19008KT WIND THR31 /////KT BLU 
LIRE 191255Z 18010KT 9999 SCT020 21/13 Q1018 RMK SCT VIS MIN 9999 WIND THR13 19009KT WIND THR31 /////KT BLU 
LIRE 191155Z 18011KT 150V210 9999 SCT020 21/15 Q1017 RMK SCT VIS MIN 9999 WIND THR13 19009KT WIND THR31 /////KT BLU 
LIRE 191055Z 19009KT 9999 SCT020 21/15 Q1018 RMK SCT VIS MIN 9999 WIND THR13 19008KT WIND THR31 /////KT BLU 
LIRE 190955Z 18007KT 140V220 9999 FEW020 21/15 Q1018
LIRE 190955Z 18007KT 140V220 9999 FEW020 21/15 Q1018 RMK SCT VIS MIN 9999 WIND THR13 19007KT WIND THR31 /////KT BLU
LIRE 190855Z 13007KT 100V160 CAVOK 20/15 Q1018 RMK FEW FEW200 VIS MIN 9999 WIND THR13 14006KT WIND THR31 /////KT BLU
LIRE 190755Z 11007KT CAVOK 17/13 Q1018  
LIRE 190755Z 11007KT CAVOK 17/13 Q1018 RMK FEW FEW200 VIS MIN 9999 WIND THR13 13007KT WIND THR31 /////KT BLU
LIRE 190655Z 10005KT CAVOK 16/14 Q1018 RMK FEW FEW200 VIS MIN 9999 WIND THR13 05001KT WIND THR31 /////KT BLU
LIRE 190555Z 09003KT CAVOK 14/13 Q1017 RMK SKC VIS MIN 9999 WIND THR13 04003KT WIND THR31 /////KT BLU   
LIRE 190455Z 03004KT CAVOK 14/13 Q1017  
LIRE 190455Z 03004KT CAVOK 14/13 Q1017 RMK SKC VIS MIN 9999 WIND THR13 04004KT WIND THR31 /////KT BLU
LIRE 190355Z 04005KT CAVOK 15/14 Q1017 RMK SKC VIS MIN 9999 WIND THR13 04005KT WIND THR31 /////KT BLU   
LIRE 190255Z 03005KT CAVOK 15/14 Q1018 RMK SKC VIS MIN 9999 WIND THR13 04004KT WIND THR31 /////KT BLU   
LIRE 190155Z 04004KT CAVOK 15/14 Q1018 RMK SKC VIS MIN 9999 WIND THR13 04003KT WIND THR31 /////KT BLU   
LIRE 190055Z 03005KT CAVOK 15/14 Q1018 RMK SKC VIS MIN 9999 WIND THR13 03003KT WIND THR31 /////KT BLU   
LIRE 182355Z 05004KT CAVOK 16/15 Q1018 RMK SKC VIS MIN 9999 WIND THR13 04003KT WIND THR31 /////KT BLU   
LIRE 182255Z 04005KT CAVOK 16/15 Q1018 RMK SKC VIS MIN 9999 WIND THR13 05003KT WIND THR31 /////KT BLU   
LIRE 182155Z 03005KT CAVOK 16/15 Q1018 RMK SKC VIS MIN 9999 WIND THR13 04003KT WIND THR31 /////KT BLU   
LIRE 182055Z 04004KT CAVOK 16/15 Q1018 RMK SKC VIS MIN 9999 WIND THR13 06002KT WIND THR31 /////KT BLU   
LIRE 181955Z 04004KT CAVOK 16/15 Q1018 RMK SKC VIS MIN 9999 WIND THR13 06002KT WIND THR31 /////KT BLU